Time;durP1;ratioP1;P1;durP2;ratioP2;P2;SDS_P1;SDS_P2;PMS_P1;PMS_P2;Temp;Humidity;BMP_temperature;BMP_pressure;BME280_temperature;BME280_humidity;BME280_pressure;Samples;Min_cycle;Max_cycle;Signal;HPM_P1;HPM_P2
2022/09/11 00:00:27;;;;;;;;;;;15.10;99.90;;;;;;5064687;28;19928;-75
2022/09/11 00:02:52;;;;;;;;;;;14.90;99.90;;;;;;5064770;28;19928;-74
2022/09/11 00:05:18;;;;;;;;;;;14.90;99.90;;;;;;5065334;28;19919;-74
2022/09/11 00:07:43;;;;;;;;;;;15.10;99.90;;;;;;5064916;28;19916;-75
2022/09/11 00:10:09;;;;;;;;;;;14.90;99.90;;;;;;5064811;28;19920;-74
2022/09/11 00:12:34;;;;;;;;;;;14.90;99.90;;;;;;5064450;28;19913;-75
2022/09/11 00:15:00;;;;;;;;;;;14.90;99.90;;;;;;5064407;28;19912;-74
2022/09/11 00:17:25;;;;;;;;;;;14.90;99.90;;;;;;5064682;28;20386;-75
2022/09/11 00:19:51;;;;;;;;;;;14.80;99.90;;;;;;5064600;28;19939;-74
2022/09/11 00:22:16;;;;;;;;;;;14.70;99.90;;;;;;5064244;28;19978;-75
2022/09/11 00:24:42;;;;;;;;;;;14.80;99.90;;;;;;5064129;28;20348;-75
2022/09/11 00:27:07;;;;;;;;;;;14.80;99.90;;;;;;5064202;28;19931;-74
2022/09/11 00:29:33;;;;;;;;;;;14.80;99.90;;;;;;5064013;28;19914;-74
2022/09/11 00:31:58;;;;;;;;;;;14.80;99.90;;;;;;5064581;28;20332;-74
2022/09/11 00:34:24;;;;;;;;;;;14.80;99.90;;;;;;5064506;28;19908;-75
2022/09/11 00:36:51;;;;;;;;;;;14.70;99.90;;;;;;5064378;28;20682;-74
2022/09/11 00:39:16;;;;;;;;;;;14.80;99.90;;;;;;5064156;28;19958;-74
2022/09/11 00:41:43;;;;;;;;;;;14.80;99.90;;;;;;5060984;28;19951;-75
2022/09/11 00:44:15;;;;;;;;;;;14.70;99.90;;;;;;5044171;28;19920;-74
2022/09/11 00:46:43;;;;;;;;;;;14.70;99.90;;;;;;5043889;28;19947;-74
2022/09/11 00:49:29;;;;;;;;;;;14.70;99.90;;;;;;5044217;28;19917;-75
2022/09/11 00:52:21;;;;;;;;;;;14.70;99.90;;;;;;5042561;28;20282;-74
2022/09/11 00:54:48;;;;;;;;;;;14.70;99.90;;;;;;5042158;28;20772;-75
2022/09/11 00:57:14;;;;;;;;;;;14.60;99.90;;;;;;5043628;28;19948;-74
2022/09/11 00:59:42;;;;;;;;;;;14.60;99.90;;;;;;5053331;28;19933;-74
2022/09/11 01:02:09;;;;;;;;;;;14.60;99.90;;;;;;5064065;28;19921;-75
2022/09/11 01:04:36;;;;;;;;;;;14.70;99.90;;;;;;5063254;28;20283;-74
2022/09/11 01:07:03;;;;;;;;;;;14.60;99.90;;;;;;5063937;28;19916;-74
2022/09/11 01:09:29;;;;;;;;;;;14.50;99.90;;;;;;5064304;28;20017;-75
2022/09/11 01:12:08;;;;;;;;;;;14.60;99.90;;;;;;5063923;28;19912;-75
2022/09/11 01:14:51;;;;;;;;;;;14.50;99.90;;;;;;5063680;28;19912;-74
2022/09/11 01:17:31;;;;;;;;;;;14.50;99.90;;;;;;5063678;28;19912;-75
2022/09/11 01:20:15;;;;;;;;;;;14.40;99.90;;;;;;5063485;28;19916;-75
2022/09/11 01:22:50;;;;;;;;;;;14.30;99.90;;;;;;5063422;28;19990;-75
2022/09/11 01:25:21;;;;;;;;;;;14.30;99.90;;;;;;5062238;28;19920;-75
2022/09/11 01:27:49;;;;;;;;;;;14.30;99.90;;;;;;5062881;28;19962;-74
2022/09/11 01:30:17;;;;;;;;;;;14.30;99.90;;;;;;5063667;28;19920;-74
2022/09/11 01:33:01;;;;;;;;;;;14.30;99.90;;;;;;5062133;28;19919;-74
2022/09/11 01:35:30;;;;;;;;;;;14.20;99.90;;;;;;5064062;28;19924;-75
2022/09/11 01:38:11;;;;;;;;;;;14.20;99.90;;;;;;5062922;28;19994;-75
2022/09/11 01:40:39;;;;;;;;;;;14.10;99.90;;;;;;5063691;28;19920;-75
2022/09/11 01:43:14;;;;;;;;;;;14.10;99.90;;;;;;5087712;28;20011;-74
2022/09/11 01:45:41;;;;;;;;;;;14.10;99.90;;;;;;5063119;28;19928;-74
2022/09/11 01:48:07;;;;;;;;;;;14.10;99.90;;;;;;5063278;28;19920;-74
2022/09/11 01:50:35;;;;;;;;;;;14.10;99.90;;;;;;5062177;28;19923;-74
2022/09/11 01:53:04;;;;;;;;;;;14.10;99.90;;;;;;5063096;28;19928;-74
2022/09/11 01:55:34;;;;;;;;;;;14.10;99.90;;;;;;5063456;28;19944;-75
2022/09/11 01:58:05;;;;;;;;;;;14.10;99.90;;;;;;5062844;28;20345;-75
2022/09/11 02:00:34;;;;;;;;;;;14.00;99.90;;;;;;5062625;28;19956;-74
2022/09/11 02:03:21;;;;;;;;;;;14.10;99.90;;;;;;5047567;28;19990;-75
2022/09/11 02:05:58;;;;;;;;;;;14.00;99.90;;;;;;5042864;28;20445;-75
2022/09/11 02:08:26;;;;;;;;;;;14.00;99.90;;;;;;5042655;28;19913;-75
2022/09/11 02:10:55;;;;;;;;;;;14.00;99.90;;;;;;5024667;28;19913;-74
2022/09/11 02:13:31;;;;;;;;;;;14.00;99.90;;;;;;5043033;28;20742;-74
2022/09/11 02:16:02;;;;;;;;;;;14.00;99.90;;;;;;5043059;28;19919;-75
2022/09/11 02:18:34;;;;;;;;;;;13.90;99.90;;;;;;5043045;28;19920;-74
2022/09/11 02:20:59;;;;;;;;;;;13.90;99.90;;;;;;5043452;28;19909;-74
2022/09/11 02:23:25;;;;;;;;;;;13.90;99.90;;;;;;5043460;28;20771;-75
2022/09/11 02:25:50;;;;;;;;;;;14.00;99.90;;;;;;5024935;28;19917;-74
2022/09/11 02:28:16;;;;;;;;;;;14.00;99.90;;;;;;5043388;28;20047;-75
2022/09/11 02:30:42;;;;;;;;;;;14.10;99.90;;;;;;5042927;28;20003;-74
2022/09/11 02:33:37;;;;;;;;;;;14.10;99.90;;;;;;5043065;28;19931;-75
2022/09/11 02:36:09;;;;;;;;;;;13.90;99.90;;;;;;5029678;28;20008;-74
2022/09/11 02:38:45;;;;;;;;;;;14.00;99.90;;;;;;5042721;28;19975;-74
2022/09/11 02:41:18;;;;;;;;;;;13.90;99.90;;;;;;5042545;28;19913;-75
2022/09/11 02:44:02;;;;;;;;;;;13.90;99.90;;;;;;5042738;28;19920;-75
2022/09/11 02:46:34;;;;;;;;;;;13.90;99.90;;;;;;5042413;28;20011;-74
2022/09/11 02:49:12;;;;;;;;;;;13.90;99.90;;;;;;5044736;28;19913;-73
2022/09/11 02:51:45;;;;;;;;;;;13.80;99.90;;;;;;5045046;28;20298;-74
2022/09/11 02:54:26;;;;;;;;;;;13.70;99.90;;;;;;5046552;28;20290;-74
2022/09/11 02:56:56;;;;;;;;;;;13.60;99.90;;;;;;5045991;28;20066;-74
2022/09/11 02:59:42;;;;;;;;;;;13.60;99.90;;;;;;5053088;28;19927;-74
2022/09/11 03:02:14;;;;;;;;;;;13.60;99.90;;;;;;5065670;28;19916;-75
2022/09/11 03:04:40;;;;;;;;;;;13.50;99.90;;;;;;5066085;28;19923;-74
2022/09/11 03:07:06;;;;;;;;;;;13.50;99.90;;;;;;5065697;28;20606;-75
2022/09/11 03:09:33;;;;;;;;;;;13.50;99.90;;;;;;5065942;28;20084;-75
2022/09/11 03:12:00;;;;;;;;;;;13.40;99.90;;;;;;5065894;28;20382;-75
2022/09/11 03:14:25;;;;;;;;;;;13.30;99.90;;;;;;5065904;28;19912;-75
2022/09/11 03:16:51;;;;;;;;;;;13.40;99.90;;;;;;5065969;28;20292;-74
2022/09/11 03:19:16;;;;;;;;;;;13.30;99.90;;;;;;5065791;28;19962;-75
2022/09/11 03:21:42;;;;;;;;;;;13.30;99.90;;;;;;5063661;28;19948;-75
2022/09/11 03:24:08;;;;;;;;;;;13.40;99.90;;;;;;5065811;28;19967;-75
2022/09/11 03:26:34;;;;;;;;;;;13.30;99.90;;;;;;5065519;28;19912;-75
2022/09/11 03:29:00;;;;;;;;;;;13.30;99.90;;;;;;5064563;28;19923;-75
2022/09/11 03:31:25;;;;;;;;;;;13.40;99.90;;;;;;5065886;28;19928;-75
2022/09/11 03:33:51;;;;;;;;;;;13.30;99.90;;;;;;5066018;28;19943;-75
2022/09/11 03:36:17;;;;;;;;;;;13.40;99.90;;;;;;5065604;28;19918;-75
2022/09/11 03:38:44;;;;;;;;;;;13.40;99.90;;;;;;5065505;28;19916;-75
2022/09/11 03:41:09;;;;;;;;;;;13.40;99.90;;;;;;5065625;28;19912;-75
2022/09/11 03:43:36;;;;;;;;;;;13.40;99.90;;;;;;5065075;28;19970;-74
2022/09/11 03:46:02;;;;;;;;;;;13.40;99.90;;;;;;5065255;28;19912;-74
2022/09/11 03:48:28;;;;;;;;;;;13.40;99.90;;;;;;5064985;28;19946;-74
2022/09/11 03:50:53;;;;;;;;;;;13.20;99.90;;;;;;5063654;28;19963;-75
2022/09/11 03:53:19;;;;;;;;;;;13.30;99.90;;;;;;5064265;28;19923;-75
2022/09/11 03:55:45;;;;;;;;;;;13.20;99.90;;;;;;5065018;28;20384;-75
2022/09/11 03:58:11;;;;;;;;;;;13.30;99.90;;;;;;5064983;28;20482;-74
2022/09/11 04:00:40;;;;;;;;;;;13.30;99.90;;;;;;5064027;28;19971;-74
2022/09/11 04:03:05;;;;;;;;;;;13.40;99.90;;;;;;5065302;28;20798;-74
2022/09/11 04:05:31;;;;;;;;;;;13.30;99.90;;;;;;5065058;28;19912;-75
2022/09/11 04:07:56;;;;;;;;;;;13.20;99.90;;;;;;5064405;28;19917;-75
2022/09/11 04:10:22;;;;;;;;;;;13.10;99.90;;;;;;5064330;28;19963;-74
2022/09/11 04:12:47;;;;;;;;;;;13.00;99.90;;;;;;5064357;28;19912;-75
2022/09/11 04:15:13;;;;;;;;;;;12.90;99.90;;;;;;5064680;28;19956;-75
2022/09/11 04:17:38;;;;;;;;;;;12.90;99.90;;;;;;5064411;28;19912;-74
2022/09/11 04:20:04;;;;;;;;;;;12.90;99.90;;;;;;5064532;28;19921;-74
2022/09/11 04:22:30;;;;;;;;;;;12.90;99.90;;;;;;5063862;28;19923;-75
2022/09/11 04:24:56;;;;;;;;;;;12.90;99.90;;;;;;5064366;28;20007;-75
2022/09/11 04:27:22;;;;;;;;;;;12.90;99.90;;;;;;5064534;28;19916;-75
2022/09/11 04:29:47;;;;;;;;;;;12.80;99.90;;;;;;5064354;28;19920;-74
2022/09/11 04:32:13;;;;;;;;;;;12.80;99.90;;;;;;5064045;28;19944;-74
2022/09/11 04:34:39;;;;;;;;;;;12.80;99.90;;;;;;5064389;28;20354;-75
2022/09/11 04:37:05;;;;;;;;;;;12.70;99.90;;;;;;5062286;28;19912;-75
2022/09/11 04:39:30;;;;;;;;;;;12.70;99.90;;;;;;5064205;28;20351;-74
2022/09/11 04:41:56;;;;;;;;;;;12.70;99.90;;;;;;5064338;28;19912;-74
2022/09/11 04:44:22;;;;;;;;;;;12.70;99.90;;;;;;5063985;28;20721;-74
2022/09/11 04:46:48;;;;;;;;;;;12.70;99.90;;;;;;5064151;28;20373;-75
2022/09/11 04:49:14;;;;;;;;;;;12.70;99.90;;;;;;5064013;28;19919;-75
2022/09/11 04:51:39;;;;;;;;;;;12.60;99.90;;;;;;5062213;28;19928;-75
2022/09/11 04:54:05;;;;;;;;;;;12.60;99.90;;;;;;5064305;28;19919;-75
2022/09/11 04:56:33;;;;;;;;;;;12.60;99.90;;;;;;5063744;28;19912;-74
2022/09/11 04:59:00;;;;;;;;;;;12.60;99.90;;;;;;5063557;28;19927;-75
2022/09/11 05:01:26;;;;;;;;;;;12.50;99.90;;;;;;5063785;28;20674;-74
2022/09/11 05:03:52;;;;;;;;;;;12.50;99.90;;;;;;5063595;28;19921;-75
2022/09/11 05:06:17;;;;;;;;;;;12.50;99.90;;;;;;5062238;28;20411;-75
2022/09/11 05:08:43;;;;;;;;;;;12.40;99.90;;;;;;5063934;28;19955;-74
2022/09/11 05:11:10;;;;;;;;;;;12.30;99.90;;;;;;5063862;28;19918;-75
2022/09/11 05:13:35;;;;;;;;;;;12.40;99.90;;;;;;5063923;28;19928;-75
2022/09/11 05:16:01;;;;;;;;;;;12.50;99.90;;;;;;5064174;28;19912;-75
2022/09/11 05:18:27;;;;;;;;;;;12.50;99.90;;;;;;5063203;28;19913;-74
2022/09/11 05:21:00;;;;;;;;;;;12.50;99.90;;;;;;5063264;28;19919;-75
2022/09/11 05:23:26;;;;;;;;;;;12.40;99.90;;;;;;5063392;28;19920;-75
2022/09/11 05:25:56;;;;;;;;;;;12.50;99.90;;;;;;5063212;28;19912;-74
2022/09/11 05:28:22;;;;;;;;;;;12.50;99.90;;;;;;5063399;28;19912;-74
2022/09/11 05:30:48;;;;;;;;;;;12.50;99.90;;;;;;5061705;28;19908;-74
2022/09/11 05:33:13;;;;;;;;;;;12.40;99.90;;;;;;5063302;28;19912;-75
2022/09/11 05:35:39;;;;;;;;;;;12.50;99.90;;;;;;5063141;28;20027;-75
2022/09/11 05:38:05;;;;;;;;;;;12.50;99.90;;;;;;5063013;28;19958;-74
2022/09/11 05:40:30;;;;;;;;;;;12.50;99.90;;;;;;5063780;28;19913;-75
2022/09/11 05:42:56;;;;;;;;;;;13.00;99.90;;;;;;5063549;28;19924;-73
2022/09/11 05:45:21;;;;;;;;;;;13.10;99.90;;;;;;5064178;28;20463;-74
2022/09/11 05:47:47;;;;;;;;;;;13.30;99.90;;;;;;5063912;28;20396;-74
2022/09/11 05:50:13;;;;;;;;;;;13.60;99.90;;;;;;5062083;28;19920;-75
2022/09/11 05:52:39;;;;;;;;;;;14.10;99.90;;;;;;5063768;28;19912;-74
2022/09/11 05:55:05;;;;;;;;;;;14.60;99.90;;;;;;5063463;28;19913;-74
2022/09/11 05:57:31;;;;;;;;;;;14.80;99.90;;;;;;5063568;28;19920;-74
2022/09/11 05:59:56;;;;;;;;;;;15.20;99.90;;;;;;5063508;28;19934;-74
2022/09/11 06:02:22;;;;;;;;;;;15.40;99.90;;;;;;5063473;28;20015;-75
2022/09/11 06:04:47;;;;;;;;;;;15.60;99.90;;;;;;5063567;28;19963;-74
2022/09/11 06:07:13;;;;;;;;;;;15.80;99.90;;;;;;5063124;28;19919;-74
2022/09/11 06:09:38;;;;;;;;;;;15.90;99.90;;;;;;5063406;28;19992;-74
2022/09/11 06:12:04;;;;;;;;;;;15.90;99.90;;;;;;5063886;28;19948;-74
2022/09/11 06:14:30;;;;;;;;;;;16.20;99.90;;;;;;5063173;28;19912;-75
2022/09/11 06:16:56;;;;;;;;;;;16.50;99.90;;;;;;5061391;28;19913;-74
2022/09/11 06:19:23;;;;;;;;;;;16.60;99.90;;;;;;5061566;28;19912;-75
2022/09/11 06:21:49;;;;;;;;;;;16.60;99.90;;;;;;5063531;28;19915;-74
2022/09/11 06:24:14;;;;;;;;;;;16.70;99.90;;;;;;5065540;28;20039;-74
2022/09/11 06:26:40;;;;;;;;;;;16.90;99.90;;;;;;5067024;28;19912;-75
2022/09/11 06:29:06;;;;;;;;;;;17.20;99.90;;;;;;5067247;28;19952;-74
2022/09/11 06:31:32;;;;;;;;;;;17.20;99.90;;;;;;5066947;28;19915;-74
2022/09/11 06:33:57;;;;;;;;;;;17.30;99.90;;;;;;5066807;28;19912;-74
2022/09/11 06:36:28;;;;;;;;;;;17.60;99.90;;;;;;5067177;28;19919;-75
2022/09/11 06:38:55;;;;;;;;;;;17.80;99.90;;;;;;5067118;28;19969;-75
2022/09/11 06:41:21;;;;;;;;;;;18.00;99.90;;;;;;5067433;28;19978;-75
2022/09/11 06:43:48;;;;;;;;;;;18.00;99.90;;;;;;5066512;28;19924;-75
2022/09/11 06:46:14;;;;;;;;;;;18.30;99.90;;;;;;5066750;28;20007;-75
2022/09/11 06:48:41;;;;;;;;;;;18.50;99.90;;;;;;5066297;28;19920;-75
2022/09/11 06:51:08;;;;;;;;;;;18.60;99.90;;;;;;5065147;28;19917;-75
2022/09/11 06:53:33;;;;;;;;;;;18.80;99.90;;;;;;5066870;28;19908;-75
2022/09/11 06:56:00;;;;;;;;;;;19.20;99.90;;;;;;5066963;28;19912;-76
2022/09/11 06:58:26;;;;;;;;;;;19.30;99.90;;;;;;5066667;28;19928;-75
2022/09/11 07:00:51;;;;;;;;;;;19.30;99.90;;;;;;5066502;28;20298;-75
2022/09/11 07:03:17;;;;;;;;;;;19.40;99.90;;;;;;5066417;28;20312;-75
2022/09/11 07:05:48;;;;;;;;;;;19.60;99.90;;;;;;5066399;28;20409;-75
2022/09/11 07:08:13;;;;;;;;;;;19.70;99.90;;;;;;5066402;28;19978;-75
2022/09/11 07:10:39;;;;;;;;;;;20.10;99.90;;;;;;5066088;28;20607;-75
2022/09/11 07:13:05;;;;;;;;;;;20.20;99.90;;;;;;5066457;28;20396;-75
2022/09/11 07:15:33;;;;;;;;;;;20.40;99.90;;;;;;5065967;28;19912;-76
2022/09/11 07:18:00;;;;;;;;;;;20.30;98.90;;;;;;5066147;28;19927;-75
2022/09/11 07:20:26;;;;;;;;;;;20.70;99.00;;;;;;5065918;28;19919;-76
2022/09/11 07:22:52;;;;;;;;;;;20.90;98.20;;;;;;5065602;28;19916;-75
2022/09/11 07:25:17;;;;;;;;;;;21.10;98.50;;;;;;5065757;28;19912;-75
2022/09/11 07:27:43;;;;;;;;;;;21.30;97.10;;;;;;5065826;28;19935;-76
2022/09/11 07:30:09;;;;;;;;;;;21.40;96.30;;;;;;5065965;28;19912;-75
2022/09/11 07:32:36;;;;;;;;;;;21.70;96.60;;;;;;5065863;28;20608;-75
2022/09/11 07:35:02;;;;;;;;;;;22.00;96.30;;;;;;5065480;28;20400;-75
2022/09/11 07:37:27;;;;;;;;;;;22.10;95.10;;;;;;5066372;28;20453;-75
2022/09/11 07:39:53;;;;;;;;;;;22.70;94.10;;;;;;5066190;28;20014;-75
2022/09/11 07:42:19;;;;;;;;;;;23.10;93.70;;;;;;5065255;28;19991;-75
2022/09/11 07:44:44;;;;;;;;;;;23.20;92.40;;;;;;5065533;28;19923;-75
2022/09/11 07:47:10;;;;;;;;;;;23.20;92.80;;;;;;5065619;28;20026;-75
2022/09/11 07:49:35;;;;;;;;;;;23.30;91.80;;;;;;5065832;28;19954;-75
2022/09/11 07:52:02;;;;;;;;;;;23.30;90.60;;;;;;5096674;28;19924;-75
2022/09/11 07:54:28;;;;;;;;;;;23.10;90.90;;;;;;5065140;28;20653;-75
2022/09/11 07:56:54;;;;;;;;;;;23.20;91.60;;;;;;5064922;28;20300;-76
2022/09/11 07:59:21;;;;;;;;;;;23.20;90.90;;;;;;5065126;28;20388;-75
2022/09/11 08:01:48;;;;;;;;;;;23.00;90.90;;;;;;5097399;28;19966;-75
2022/09/11 08:04:14;;;;;;;;;;;23.70;90.60;;;;;;5064988;28;19920;-75
2022/09/11 08:06:40;;;;;;;;;;;23.90;90.10;;;;;;5065133;28;20404;-75
2022/09/11 08:09:07;;;;;;;;;;;24.40;89.70;;;;;;5065318;28;19913;-75
2022/09/11 08:11:41;;;;;;;;;;;24.10;88.80;;;;;;5065284;28;19913;-75
2022/09/11 08:14:08;;;;;;;;;;;24.00;86.90;;;;;;5064500;28;19963;-75
2022/09/11 08:16:35;;;;;;;;;;;24.40;86.40;;;;;;5065371;28;19916;-76
2022/09/11 08:19:00;;;;;;;;;;;24.30;86.00;;;;;;5064844;28;19990;-75
2022/09/11 08:21:26;;;;;;;;;;;24.60;86.30;;;;;;5064741;28;19912;-76
2022/09/11 08:23:52;;;;;;;;;;;24.90;83.10;;;;;;5097639;28;19920;-75
2022/09/11 08:26:22;;;;;;;;;;;25.50;84.40;;;;;;5064705;28;19965;-75
2022/09/11 08:28:49;;;;;;;;;;;25.40;83.60;;;;;;5064379;28;20012;-75
2022/09/11 08:31:16;;;;;;;;;;;25.50;81.40;;;;;;5064493;28;19920;-75
2022/09/11 08:33:42;;;;;;;;;;;25.70;80.70;;;;;;5064719;28;19920;-75
2022/09/11 08:36:09;;;;;;;;;;;25.80;80.10;;;;;;5064561;28;19916;-75
2022/09/11 08:38:35;;;;;;;;;;;25.90;78.80;;;;;;5064729;28;19915;-74
2022/09/11 08:41:19;;;;;;;;;;;26.30;78.50;;;;;;5064384;28;20392;-75
2022/09/11 08:43:49;;;;;;;;;;;27.00;76.80;;;;;;5063914;28;20022;-75
2022/09/11 08:46:16;;;;;;;;;;;27.10;76.10;;;;;;5064632;28;19916;-75
2022/09/11 08:48:44;;;;;;;;;;;26.50;76.50;;;;;;5064665;28;19924;-75
2022/09/11 08:51:14;;;;;;;;;;;26.90;74.50;;;;;;5063288;28;19913;-75
2022/09/11 08:53:39;;;;;;;;;;;27.20;76.70;;;;;;5064491;28;20034;-76
2022/09/11 08:56:08;;;;;;;;;;;27.40;74.10;;;;;;5064550;28;20444;-75
2022/09/11 08:58:37;;;;;;;;;;;28.00;72.90;;;;;;5063661;28;20399;-75
2022/09/11 09:01:21;;;;;;;;;;;27.60;72.30;;;;;;5064295;28;19912;-75
2022/09/11 09:03:56;;;;;;;;;;;28.20;72.10;;;;;;5063712;28;20718;-75
2022/09/11 09:06:40;;;;;;;;;;;27.90;70.80;;;;;;5062790;28;19931;-76
2022/09/11 09:09:24;;;;;;;;;;;28.30;71.40;;;;;;5063857;28;20007;-76
2022/09/11 09:12:03;;;;;;;;;;;28.90;69.50;;;;;;5063896;28;19912;-75
2022/09/11 09:14:35;;;;;;;;;;;29.10;68.20;;;;;;5064228;28;19953;-76
2022/09/11 09:17:01;;;;;;;;;;;29.10;69.10;;;;;;5064004;28;19963;-75
2022/09/11 09:19:30;;;;;;;;;;;28.80;67.60;;;;;;5064177;28;19951;-75
2022/09/11 09:22:02;;;;;;;;;;;29.30;67.80;;;;;;5064053;28;20329;-76
2022/09/11 09:24:31;;;;;;;;;;;29.80;67.80;;;;;;5063915;28;19973;-75
2022/09/11 09:26:57;;;;;;;;;;;29.70;68.30;;;;;;5063175;28;20032;-75
2022/09/11 09:29:24;;;;;;;;;;;29.50;67.60;;;;;;5063961;28;20405;-76
2022/09/11 09:31:52;;;;;;;;;;;29.20;67.30;;;;;;5063948;28;20436;-74
2022/09/11 09:34:19;;;;;;;;;;;29.30;65.00;;;;;;5063990;28;19918;-76
2022/09/11 09:36:48;;;;;;;;;;;29.70;67.00;;;;;;5063775;28;19931;-75
2022/09/11 09:39:14;;;;;;;;;;;30.50;65.80;;;;;;5063612;28;20813;-75
2022/09/11 09:41:55;;;;;;;;;;;30.50;63.80;;;;;;5063597;28;19919;-75
2022/09/11 09:44:22;;;;;;;;;;;30.40;65.80;;;;;;5063680;28;19970;-76
2022/09/11 09:46:52;;;;;;;;;;;30.40;65.50;;;;;;5063338;28;19920;-75
2022/09/11 09:49:23;;;;;;;;;;;29.70;65.90;;;;;;5063680;28;20435;-76
2022/09/11 09:51:50;;;;;;;;;;;30.20;64.80;;;;;;5061722;28;19916;-75
2022/09/11 09:54:18;;;;;;;;;;;28.70;67.60;;;;;;5063412;28;19919;-74
2022/09/11 09:56:52;;;;;;;;;;;27.40;66.90;;;;;;5063603;28;20381;-75
2022/09/11 09:59:20;;;;;;;;;;;27.00;69.40;;;;;;5066096;28;20023;-76
2022/09/11 10:01:50;;;;;;;;;;;27.00;69.20;;;;;;5068312;28;19919;-75
2022/09/11 10:04:17;;;;;;;;;;;26.70;70.00;;;;;;5067510;28;20076;-75
2022/09/11 10:06:46;;;;;;;;;;;26.30;69.30;;;;;;5067552;28;19912;-76
2022/09/11 10:09:23;;;;;;;;;;;26.10;69.10;;;;;;5067359;28;19934;-75
2022/09/11 10:12:00;;;;;;;;;;;26.10;69.90;;;;;;5067230;28;19912;-75
2022/09/11 10:14:26;;;;;;;;;;;25.90;70.60;;;;;;5067319;28;19912;-76
2022/09/11 10:16:53;;;;;;;;;;;25.80;70.60;;;;;;5067060;28;20407;-75
2022/09/11 10:19:35;;;;;;;;;;;25.90;69.40;;;;;;5066980;28;19912;-75
2022/09/11 10:22:20;;;;;;;;;;;26.30;72.10;;;;;;5067320;28;19912;-75
2022/09/11 10:24:51;;;;;;;;;;;26.10;71.40;;;;;;5067138;28;19947;-75
2022/09/11 10:27:18;;;;;;;;;;;26.60;72.30;;;;;;5067283;28;19916;-75
2022/09/11 10:29:50;;;;;;;;;;;25.90;69.40;;;;;;5067132;28;19913;-75
2022/09/11 10:32:16;;;;;;;;;;;25.70;69.20;;;;;;5066702;28;20389;-76
2022/09/11 10:34:42;;;;;;;;;;;25.50;70.70;;;;;;5066745;28;19946;-75
2022/09/11 10:37:08;;;;;;;;;;;25.60;68.50;;;;;;5066252;28;20007;-76
2022/09/11 10:39:34;;;;;;;;;;;25.70;67.20;;;;;;5066575;28;19909;-75
2022/09/11 10:42:11;;;;;;;;;;;26.10;68.80;;;;;;5066188;28;19919;-75
2022/09/11 10:44:40;;;;;;;;;;;26.30;68.70;;;;;;5066804;28;19967;-75
2022/09/11 10:47:17;;;;;;;;;;;25.90;70.50;;;;;;5066822;28;19912;-75
2022/09/11 10:49:43;;;;;;;;;;;25.60;71.40;;;;;;5066625;28;19919;-75
2022/09/11 10:52:08;;;;;;;;;;;25.80;70.80;;;;;;5065478;28;19916;-75
2022/09/11 10:54:44;;;;;;;;;;;25.70;70.60;;;;;;5066670;28;19958;-75
2022/09/11 10:57:12;;;;;;;;;;;25.20;71.70;;;;;;5066323;28;20489;-75
2022/09/11 10:59:40;;;;;;;;;;;24.90;72.60;;;;;;5066171;28;19964;-75
2022/09/11 11:02:15;;;;;;;;;;;25.30;72.50;;;;;;5066692;28;19924;-76
2022/09/11 11:04:40;;;;;;;;;;;25.10;71.40;;;;;;5066512;28;19920;-75
2022/09/11 11:07:10;;;;;;;;;;;25.30;71.70;;;;;;5066618;28;20278;-75
2022/09/11 11:09:48;;;;;;;;;;;25.30;72.90;;;;;;5066391;28;19944;-76
2022/09/11 11:12:19;;;;;;;;;;;25.60;70.60;;;;;;5066524;28;19913;-76
2022/09/11 11:14:54;;;;;;;;;;;25.60;70.70;;;;;;5065432;28;19912;-75
2022/09/11 11:17:58;;;;;;;;;;;25.70;71.30;;;;;;5066450;28;19912;-75
2022/09/11 11:20:26;;;;;;;;;;;25.70;69.70;;;;;;5043230;28;19913;-75
2022/09/11 11:22:55;;;;;;;;;;;25.60;71.20;;;;;;5042708;28;20348;-75
2022/09/11 11:25:33;;;;;;;;;;;25.20;72.10;;;;;;5043340;28;20091;-76
2022/09/11 11:28:17;;;;;;;;;;;25.30;73.20;;;;;;5043022;28;19913;-76
2022/09/11 11:30:51;;;;;;;;;;;25.40;74.70;;;;;;5043220;28;20069;-75
2022/09/11 11:33:17;;;;;;;;;;;25.10;69.90;;;;;;5042710;28;19916;-76
2022/09/11 11:35:59;;;;;;;;;;;25.10;71.20;;;;;;5043066;28;19945;-75
2022/09/11 11:38:32;;;;;;;;;;;25.20;70.20;;;;;;5042700;28;19916;-76
2022/09/11 11:41:03;;;;;;;;;;;25.20;70.70;;;;;;5043388;28;20094;-76
2022/09/11 11:43:31;;;;;;;;;;;25.50;74.80;;;;;;5042851;28;20012;-75
2022/09/11 11:46:01;;;;;;;;;;;25.40;71.20;;;;;;5025915;28;20355;-75
2022/09/11 11:48:41;;;;;;;;;;;25.20;72.00;;;;;;5042419;28;19913;-76
2022/09/11 11:51:10;;;;;;;;;;;25.20;71.80;;;;;;5051915;28;20033;-75
2022/09/11 11:53:39;;;;;;;;;;;25.20;70.60;;;;;;5065560;28;19913;-75
2022/09/11 11:56:12;;;;;;;;;;;25.30;69.60;;;;;;5065934;28;20007;-75
2022/09/11 11:58:43;;;;;;;;;;;25.20;68.30;;;;;;5065594;28;19923;-75
2022/09/11 12:01:17;;;;;;;;;;;25.30;69.30;;;;;;5065334;28;20020;-75
2022/09/11 12:03:45;;;;;;;;;;;25.30;68.60;;;;;;5065039;28;19927;-75
2022/09/11 12:06:11;;;;;;;;;;;25.30;67.70;;;;;;5064850;28;19970;-75
2022/09/11 12:08:46;;;;;;;;;;;25.40;68.10;;;;;;5065383;28;19994;-76
2022/09/11 12:11:14;;;;;;;;;;;25.30;65.40;;;;;;5065284;28;19916;-74
2022/09/11 12:13:41;;;;;;;;;;;25.30;62.60;;;;;;5064957;28;19930;-76
2022/09/11 12:16:07;;;;;;;;;;;25.30;63.30;;;;;;5065165;28;20048;-75
2022/09/11 12:18:32;;;;;;;;;;;25.30;62.80;;;;;;5064796;28;20606;-75
2022/09/11 12:21:24;;;;;;;;;;;25.20;62.20;;;;;;5064194;28;19912;-75
2022/09/11 12:23:49;;;;;;;;;;;25.20;59.90;;;;;;5041884;28;19935;-75
2022/09/11 12:26:19;;;;;;;;;;;25.20;60.60;;;;;;5041819;28;20442;-75
2022/09/11 12:28:44;;;;;;;;;;;25.10;60.50;;;;;;5041971;28;20055;-75
2022/09/11 12:31:14;;;;;;;;;;;25.30;60.00;;;;;;5041159;28;19913;-75
2022/09/11 12:33:40;;;;;;;;;;;25.30;58.90;;;;;;5041566;28;20460;-75
2022/09/11 12:36:11;;;;;;;;;;;25.10;58.70;;;;;;5041425;28;19920;-75
2022/09/11 12:38:40;;;;;;;;;;;25.30;58.90;;;;;;5041470;28;20028;-75
2022/09/11 12:41:12;;;;;;;;;;;25.40;59.50;;;;;;5041858;28;19920;-75
2022/09/11 12:43:37;;;;;;;;;;;25.30;58.50;;;;;;5041536;28;19928;-76
2022/09/11 12:46:04;;;;;;;;;;;25.40;58.90;;;;;;5041787;28;20328;-75
2022/09/11 12:48:37;;;;;;;;;;;25.20;60.50;;;;;;5041238;28;19999;-75
2022/09/11 12:51:04;;;;;;;;;;;25.30;60.40;;;;;;5040475;28;20031;-75
2022/09/11 12:53:32;;;;;;;;;;;25.40;59.40;;;;;;5041515;28;19913;-75
2022/09/11 12:55:59;;;;;;;;;;;25.20;59.10;;;;;;5041185;28;20062;-76
2022/09/11 12:58:30;;;;;;;;;;;25.20;57.40;;;;;;5040934;28;19928;-75
2022/09/11 13:01:01;;;;;;;;;;;25.30;57.30;;;;;;5042913;28;19971;-75
2022/09/11 13:03:27;;;;;;;;;;;25.30;57.20;;;;;;5043708;28;19920;-75
2022/09/11 13:06:09;;;;;;;;;;;25.40;58.20;;;;;;5043888;28;20744;-75
2022/09/11 13:08:39;;;;;;;;;;;25.40;57.00;;;;;;5043939;28;19948;-75
2022/09/11 13:11:24;;;;;;;;;;;25.40;57.10;;;;;;5044320;28;19956;-76
2022/09/11 13:13:50;;;;;;;;;;;25.40;57.20;;;;;;5043782;28;19913;-76
2022/09/11 13:16:21;;;;;;;;;;;25.50;56.80;;;;;;5044008;28;19913;-76
2022/09/11 13:18:47;;;;;;;;;;;25.50;58.60;;;;;;5043372;28;19942;-75
2022/09/11 13:21:14;;;;;;;;;;;25.40;56.50;;;;;;5043731;28;20349;-75
2022/09/11 13:23:43;;;;;;;;;;;25.40;56.20;;;;;;5043143;28;20532;-76
2022/09/11 13:26:22;;;;;;;;;;;25.20;57.20;;;;;;5044282;28;19934;-76
2022/09/11 13:28:49;;;;;;;;;;;25.40;58.60;;;;;;5044119;28;19944;-75
2022/09/11 13:31:18;;;;;;;;;;;25.60;55.90;;;;;;5043960;28;19962;-76
2022/09/11 13:33:50;;;;;;;;;;;25.30;56.20;;;;;;5042838;28;20007;-76
2022/09/11 13:36:19;;;;;;;;;;;25.40;55.80;;;;;;5043813;28;19913;-76
2022/09/11 13:38:47;;;;;;;;;;;25.70;55.10;;;;;;5044024;28;19916;-76
2022/09/11 13:41:15;;;;;;;;;;;25.50;56.40;;;;;;5043669;28;19920;-75
2022/09/11 13:43:43;;;;;;;;;;;25.50;55.10;;;;;;5062235;28;20018;-76
2022/09/11 13:46:14;;;;;;;;;;;25.40;56.10;;;;;;5064358;28;19916;-75
2022/09/11 13:48:44;;;;;;;;;;;25.50;54.70;;;;;;5063790;28;19967;-75
2022/09/11 13:51:13;;;;;;;;;;;25.60;55.20;;;;;;5062631;28;19912;-76
2022/09/11 13:53:40;;;;;;;;;;;25.40;54.70;;;;;;5063157;28;20721;-75
2022/09/11 13:56:15;;;;;;;;;;;25.40;56.00;;;;;;5064030;28;19912;-75
2022/09/11 13:58:41;;;;;;;;;;;25.50;57.00;;;;;;5063386;28;19919;-75
2022/09/11 14:01:10;;;;;;;;;;;25.40;56.70;;;;;;5063466;28;20016;-75
2022/09/11 14:03:37;;;;;;;;;;;25.50;56.50;;;;;;5062286;28;19920;-75
2022/09/11 14:06:09;;;;;;;;;;;25.60;56.30;;;;;;5063133;28;19913;-75
2022/09/11 14:08:36;;;;;;;;;;;25.50;56.30;;;;;;5062953;28;19913;-76
2022/09/11 14:11:06;;;;;;;;;;;25.50;56.30;;;;;;5063578;28;19934;-75
2022/09/11 14:13:32;;;;;;;;;;;25.50;56.20;;;;;;5063336;28;19913;-76
2022/09/11 14:16:13;;;;;;;;;;;25.60;57.90;;;;;;5063737;28;19919;-76
2022/09/11 14:19:11;;;;;;;;;;;25.60;58.50;;;;;;5064021;28;19919;-75
2022/09/11 14:21:38;;;;;;;;;;;25.70;58.40;;;;;;5040440;28;19924;-75
2022/09/11 14:24:20;;;;;;;;;;;25.60;58.80;;;;;;5040142;28;20661;-75
2022/09/11 14:26:46;;;;;;;;;;;25.70;60.00;;;;;;5040298;28;20005;-76